Time;durP1;ratioP1;P1;durP2;ratioP2;P2;SDS_P1;SDS_P2;PMS_P1;PMS_P2;Temp;Humidity;BMP_temperature;BMP_pressure;BME280_temperature;BME280_humidity;BME280_pressure;Samples;Min_cycle;Max_cycle;Signal;HPM_P1;HPM_P2
2021/03/08 00:01:36;;;;;;;20.02;13.77;;;3.90;99.90;;;;;;4954747;28;20023;-77
2021/03/08 00:04:02;;;;;;;19.48;12.70;;;3.90;99.90;;;;;;4949402;28;20086;-77
2021/03/08 00:06:28;;;;;;;16.85;12.35;;;3.90;99.90;;;;;;4964808;28;20034;-76
2021/03/08 00:08:54;;;;;;;17.33;12.23;;;3.80;99.90;;;;;;4960760;28;20035;-76
2021/03/08 00:11:20;;;;;;;14.68;12.63;;;3.80;99.90;;;;;;4950342;28;20034;-75
2021/03/08 00:13:46;;;;;;;16.25;10.75;;;3.90;99.90;;;;;;4959834;28;20099;-76
2021/03/08 00:16:11;;;;;;;26.25;14.57;;;3.90;99.90;;;;;;4967016;28;20426;-76
2021/03/08 00:18:37;;;;;;;23.75;11.82;;;3.90;99.90;;;;;;4967069;28;20035;-76
2021/03/08 00:21:04;;;;;;;19.33;12.02;;;3.80;99.90;;;;;;4959652;28;20783;-77
2021/03/08 00:23:29;;;;;;;12.73;10.32;;;3.90;99.90;;;;;;4962478;28;20058;-76
2021/03/08 00:25:55;;;;;;;20.77;12.85;;;3.90;99.90;;;;;;4953017;28;20448;-76
2021/03/08 00:28:21;;;;;;;17.27;11.77;;;3.80;99.90;;;;;;4962290;28;20621;-76
2021/03/08 00:30:47;;;;;;;19.35;11.75;;;3.80;99.90;;;;;;4951634;28;20035;-76
2021/03/08 00:33:17;;;;;;;15.43;11.82;;;3.80;99.90;;;;;;4961894;28;20101;-76
2021/03/08 00:35:42;;;;;;;19.77;11.80;;;3.70;99.90;;;;;;4954140;28;20478;-76
2021/03/08 00:38:08;;;;;;;14.05;12.07;;;3.80;99.90;;;;;;4961474;28;20054;-77
2021/03/08 00:40:34;;;;;;;15.70;11.60;;;3.80;99.90;;;;;;4956070;28;20395;-76
2021/03/08 00:43:00;;;;;;;16.17;10.52;;;3.90;99.90;;;;;;4949309;28;20094;-77
2021/03/08 00:45:26;;;;;;;16.08;12.23;;;3.90;99.90;;;;;;4958692;28;20053;-76
2021/03/08 00:47:52;;;;;;;17.15;12.02;;;4.00;99.90;;;;;;4968203;28;20030;-75
2021/03/08 00:50:27;;;;;;;16.45;11.32;;;4.00;99.90;;;;;;4941740;28;20098;-76
2021/03/08 00:52:54;;;;;;;13.98;11.07;;;4.00;99.90;;;;;;4963346;28;20430;-77
2021/03/08 00:55:20;;;;;;;19.80;11.80;;;4.00;99.90;;;;;;4964954;28;20086;-76
2021/03/08 00:57:47;;;;;;;15.10;10.13;;;3.90;99.90;;;;;;4965454;28;20482;-77
2021/03/08 01:00:16;;;;;;;13.50;10.95;;;3.90;99.90;;;;;;4958518;28;20126;-79
2021/03/08 01:02:42;;;;;;;12.15;9.18;;;4.00;99.90;;;;;;4948547;28;20028;-77
2021/03/08 01:05:08;;;;;;;19.58;13.27;;;3.90;99.90;;;;;;4955948;28;20050;-79
2021/03/08 01:07:35;;;;;;;17.50;11.65;;;3.80;99.90;;;;;;4941274;28;20031;-76
2021/03/08 01:10:02;;;;;;;16.88;10.98;;;3.80;99.90;;;;;;4965482;28;20453;-76
2021/03/08 01:12:28;;;;;;;16.77;11.73;;;3.70;99.90;;;;;;4956470;28;20050;-77
2021/03/08 01:14:54;;;;;;;17.25;10.30;;;3.70;99.90;;;;;;4958439;28;20114;-79
2021/03/08 01:17:20;;;;;;;17.33;11.27;;;3.70;99.90;;;;;;4956815;28;20029;-77
2021/03/08 01:19:46;;;;;;;18.30;10.95;;;3.70;99.90;;;;;;4959277;28;20594;-76
2021/03/08 01:22:12;;;;;;;16.08;9.95;;;3.60;99.90;;;;;;4961572;28;20035;-77
2021/03/08 01:24:38;;;;;;;16.17;10.07;;;3.40;99.90;;;;;;4960077;28;20038;-76
2021/03/08 01:27:04;;;;;;;14.40;10.13;;;3.40;99.90;;;;;;4958199;28;20023;-76
2021/03/08 01:29:30;;;;;;;15.30;9.80;;;3.50;99.90;;;;;;4963205;28;20495;-76
2021/03/08 01:31:56;;;;;;;15.70;11.13;;;3.50;99.90;;;;;;4963024;28;20034;-76
2021/03/08 01:34:22;;;;;;;11.45;9.52;;;3.40;99.90;;;;;;4963031;28;20027;-75
2021/03/08 01:36:48;;;;;;;14.13;9.35;;;3.40;99.90;;;;;;4963913;28;20054;-76
2021/03/08 01:39:14;;;;;;;14.27;10.68;;;3.50;99.90;;;;;;4962211;28;20027;-76
2021/03/08 01:41:40;;;;;;;15.93;9.88;;;3.40;99.90;;;;;;4957720;28;20027;-77
2021/03/08 01:44:06;;;;;;;15.68;11.75;;;3.30;99.90;;;;;;4964223;28;20027;-75
2021/03/08 01:46:32;;;;;;;18.15;11.38;;;3.30;99.90;;;;;;4955331;28;20031;-76
2021/03/08 01:48:58;;;;;;;17.55;11.52;;;3.20;99.90;;;;;;4962351;28;20028;-77
2021/03/08 01:51:24;;;;;;;13.20;10.48;;;3.30;99.90;;;;;;4960908;28;20083;-76
2021/03/08 01:53:52;;;;;;;19.38;14.00;;;3.40;99.90;;;;;;4954171;28;20509;-76
2021/03/08 01:56:17;;;;;;;17.67;12.90;;;3.40;99.90;;;;;;4957916;28;20474;-76
2021/03/08 01:58:44;;;;;;;15.30;11.02;;;3.50;99.90;;;;;;4960816;28;20094;-76
2021/03/08 02:01:10;;;;;;;16.88;11.55;;;3.50;99.90;;;;;;4964244;28;20398;-77
2021/03/08 02:03:35;;;;;;;15.85;10.90;;;3.40;99.90;;;;;;4950836;28;20038;-77
2021/03/08 02:06:02;;;;;;;16.67;10.45;;;3.40;99.90;;;;;;4957934;28;20031;-76
2021/03/08 02:08:28;;;;;;;14.23;10.35;;;3.50;99.90;;;;;;4950880;28;20054;-77
2021/03/08 02:10:54;;;;;;;16.00;10.57;;;3.50;99.90;;;;;;4948884;28;20031;-76
2021/03/08 02:13:41;;;;;;;18.15;10.43;;;3.40;99.90;;;;;;4962508;28;20058;-77
2021/03/08 02:16:30;;;;;;;19.38;11.75;;;3.30;99.90;;;;;;4955968;28;20101;-76
2021/03/08 02:19:02;;;;;;;14.55;8.68;;;3.20;99.90;;;;;;4960972;28;20030;-80
2021/03/08 02:21:40;;;;;;;15.02;10.13;;;3.20;99.90;;;;;;4961592;28;20020;-78
2021/03/08 02:24:27;;;;;;;13.93;10.15;;;3.10;99.90;;;;;;4964655;28;20085;-76
2021/03/08 02:26:59;;;;;;;12.25;9.52;;;3.00;99.90;;;;;;4956053;28;20035;-76
2021/03/08 02:29:34;;;;;;;16.92;10.10;;;3.10;99.90;;;;;;4955325;28;20157;-76
2021/03/08 02:32:05;;;;;;;13.60;10.63;;;3.10;99.90;;;;;;4965668;28;20059;-77
2021/03/08 02:34:44;;;;;;;17.33;11.07;;;3.00;99.90;;;;;;4961215;28;20059;-78
2021/03/08 02:37:18;;;;;;;15.50;9.70;;;3.00;99.90;;;;;;4954257;28;20150;-76
2021/03/08 02:39:48;;;;;;;17.45;10.32;;;3.10;99.90;;;;;;4955455;28;20054;-76
2021/03/08 02:42:25;;;;;;;15.57;10.43;;;3.00;99.90;;;;;;4951352;28;20028;-76
2021/03/08 02:44:55;;;;;;;13.85;10.80;;;3.00;99.90;;;;;;4953956;28;20031;-76
2021/03/08 02:47:24;;;;;;;14.80;9.82;;;3.00;99.90;;;;;;4948749;28;20027;-77
2021/03/08 02:49:53;;;;;;;18.08;10.98;;;3.00;99.90;;;;;;4956763;28;20027;-75
2021/03/08 02:52:21;;;;;;;13.95;10.93;;;3.10;99.90;;;;;;4949274;28;20034;-76
2021/03/08 02:54:52;;;;;;;11.25;9.27;;;3.20;99.90;;;;;;4962093;28;20544;-75
2021/03/08 02:57:22;;;;;;;15.25;10.05;;;3.20;99.90;;;;;;4961927;28;20031;-76
2021/03/08 02:59:49;;;;;;;13.13;9.68;;;3.10;99.90;;;;;;4954727;28;20031;-76
2021/03/08 03:02:17;;;;;;;13.90;10.27;;;3.20;99.90;;;;;;4963385;28;20037;-79
2021/03/08 03:04:46;;;;;;;11.82;9.27;;;3.20;99.90;;;;;;4957505;28;20114;-78
2021/03/08 03:07:14;;;;;;;16.63;9.75;;;3.20;99.90;;;;;;4952583;28;20529;-78
2021/03/08 03:09:42;;;;;;;13.30;9.93;;;3.20;99.90;;;;;;4956905;28;20034;-78
2021/03/08 03:12:09;;;;;;;18.67;10.43;;;3.10;99.90;;;;;;4950347;28;20027;-79
2021/03/08 03:14:36;;;;;;;13.85;9.43;;;3.00;99.90;;;;;;4949039;28;20029;-77
2021/03/08 03:17:06;;;;;;;14.57;10.38;;;3.10;99.90;;;;;;4949912;28;20034;-76
2021/03/08 03:19:34;;;;;;;13.13;10.10;;;3.10;99.90;;;;;;4957729;28;20058;-76
2021/03/08 03:22:02;;;;;;;14.95;10.57;;;3.00;99.90;;;;;;4966735;28;20106;-77
2021/03/08 03:24:30;;;;;;;18.55;11.07;;;3.10;99.90;;;;;;4963494;28;20031;-76
2021/03/08 03:26:58;;;;;;;16.50;10.70;;;3.00;99.90;;;;;;4964082;28;20023;-77
2021/03/08 03:29:25;;;;;;;17.80;11.95;;;3.10;99.90;;;;;;4964986;28;20031;-76
2021/03/08 03:31:52;;;;;;;12.70;9.88;;;3.10;99.90;;;;;;4956873;28;20043;-75
2021/03/08 03:34:19;;;;;;;15.38;10.80;;;3.10;99.90;;;;;;4958449;28;20019;-76
2021/03/08 03:36:48;;;;;;;17.60;9.77;;;3.20;99.90;;;;;;4953339;28;20028;-76
2021/03/08 03:39:15;;;;;;;14.77;10.40;;;3.20;99.90;;;;;;4957505;28;20091;-77
2021/03/08 03:41:41;;;;;;;13.68;10.75;;;3.20;99.90;;;;;;4955794;28;20031;-76
2021/03/08 03:44:12;;;;;;;15.07;10.07;;;3.30;99.90;;;;;;4966068;28;20516;-76
2021/03/08 03:46:46;;;;;;;14.32;9.65;;;3.20;99.90;;;;;;4946208;28;20062;-78
2021/03/08 03:49:16;;;;;;;13.93;9.68;;;3.20;99.90;;;;;;4955573;28;20401;-78
2021/03/08 03:51:42;;;;;;;13.68;10.85;;;3.20;99.90;;;;;;4956500;28;20023;-77
2021/03/08 03:54:09;;;;;;;17.08;9.48;;;3.20;99.90;;;;;;4954718;28;20027;-76
2021/03/08 03:56:37;;;;;;;14.05;9.85;;;3.20;99.90;;;;;;4956961;28;20035;-77
2021/03/08 03:59:13;;;;;;;12.52;10.40;;;3.10;99.90;;;;;;4964016;28;20019;-76
2021/03/08 04:01:59;;;;;;;14.27;10.65;;;3.10;99.90;;;;;;4957806;28;20422;-76
2021/03/08 04:04:40;;;;;;;14.23;10.30;;;3.10;99.90;;;;;;4963775;28;20031;-78
2021/03/08 04:07:08;;;;;;;15.30;9.63;;;3.00;99.90;;;;;;4967125;28;20447;-76
2021/03/08 04:09:37;;;;;;;14.70;10.20;;;3.10;99.90;;;;;;4962622;28;20031;-75
2021/03/08 04:12:07;;;;;;;12.65;9.63;;;3.00;99.90;;;;;;4957200;28;20023;-76
2021/03/08 04:14:34;;;;;;;14.00;9.23;;;3.00;99.90;;;;;;4954877;28;20479;-75
2021/03/08 04:17:01;;;;;;;13.35;10.45;;;3.00;99.90;;;;;;4963283;28;20023;-75
2021/03/08 04:19:31;;;;;;;14.85;10.00;;;2.90;99.90;;;;;;4965837;28;20455;-76
2021/03/08 04:22:01;;;;;;;14.20;10.48;;;3.00;99.90;;;;;;4955165;28;20042;-76
2021/03/08 04:24:28;;;;;;;16.83;10.75;;;3.00;99.90;;;;;;4960558;28;20019;-76
2021/03/08 04:26:57;;;;;;;14.70;10.60;;;2.90;99.90;;;;;;4968442;28;20143;-80
2021/03/08 04:29:23;;;;;;;11.80;9.45;;;3.00;99.90;;;;;;4964531;28;20035;-77
2021/03/08 04:31:50;;;;;;;19.42;11.10;;;2.90;99.90;;;;;;4960046;28;20042;-76
2021/03/08 04:34:17;;;;;;;15.20;10.15;;;2.90;99.90;;;;;;4960928;28;20022;-76
2021/03/08 04:36:45;;;;;;;14.18;10.70;;;2.90;99.90;;;;;;4960157;28;20109;-77
2021/03/08 04:39:12;;;;;;;15.55;10.52;;;2.90;99.90;;;;;;4963016;28;20102;-77
2021/03/08 04:41:38;;;;;;;12.77;9.77;;;2.90;99.90;;;;;;4963789;28;20046;-76
2021/03/08 04:44:07;;;;;;;15.05;9.65;;;2.90;99.90;;;;;;4958289;28;20038;-76
2021/03/08 04:46:35;;;;;;;15.23;12.52;;;3.00;99.90;;;;;;4953374;28;20046;-76
2021/03/08 04:49:01;;;;;;;18.77;11.18;;;3.00;99.90;;;;;;4966740;28;20133;-77
2021/03/08 04:51:30;;;;;;;14.80;9.80;;;3.00;99.90;;;;;;4945736;28;20509;-78
2021/03/08 04:53:59;;;;;;;14.45;11.93;;;3.00;99.90;;;;;;4959314;28;20024;-76
2021/03/08 04:56:26;;;;;;;13.07;10.27;;;3.00;99.90;;;;;;4962614;28;20598;-78
2021/03/08 04:58:52;;;;;;;18.77;11.30;;;3.00;99.90;;;;;;4967672;28;20445;-76
2021/03/08 05:01:19;;;;;;;14.25;10.80;;;3.10;99.90;;;;;;4965003;28;20023;-80
2021/03/08 05:03:46;;;;;;;14.38;10.73;;;3.10;99.90;;;;;;4948861;28;20059;-76
2021/03/08 05:06:13;;;;;;;14.68;9.90;;;3.10;99.90;;;;;;4966598;28;20023;-77
2021/03/08 05:08:42;;;;;;;12.05;9.32;;;3.10;99.90;;;;;;4955501;28;20032;-76
2021/03/08 05:11:11;;;;;;;15.63;9.65;;;3.00;99.90;;;;;;4960369;28;20027;-76
2021/03/08 05:13:38;;;;;;;14.20;10.20;;;2.90;99.90;;;;;;4965155;28;20167;-81
2021/03/08 05:16:05;;;;;;;13.68;10.35;;;2.90;99.90;;;;;;4963735;28;20027;-76
2021/03/08 05:18:32;;;;;;;13.65;11.15;;;2.90;99.90;;;;;;4956070;28;20027;-76
2021/03/08 05:20:59;;;;;;;13.70;10.07;;;2.90;99.90;;;;;;4958276;28;20035;-77
2021/03/08 05:23:25;;;;;;;12.98;9.90;;;3.00;99.90;;;;;;4951609;28;20023;-76
2021/03/08 05:25:52;;;;;;;15.32;10.27;;;3.00;99.90;;;;;;4954954;28;20031;-76
2021/03/08 05:28:20;;;;;;;12.80;10.02;;;3.00;99.90;;;;;;4958929;28;20031;-76
2021/03/08 05:30:50;;;;;;;15.43;11.20;;;3.00;99.90;;;;;;4957624;28;20027;-76
2021/03/08 05:33:25;;;;;;;12.93;10.05;;;3.00;99.90;;;;;;4959613;28;20015;-76
2021/03/08 05:35:54;;;;;;;18.35;12.18;;;3.00;99.90;;;;;;4960895;28;20066;-76
2021/03/08 05:38:21;;;;;;;17.05;11.18;;;2.90;99.90;;;;;;4959137;28;20081;-77
2021/03/08 05:40:56;;;;;;;14.55;10.35;;;2.90;99.90;;;;;;4960697;28;20051;-76
2021/03/08 05:43:28;;;;;;;18.75;11.45;;;2.80;99.90;;;;;;4965307;28;20053;-78
2021/03/08 05:46:00;;;;;;;18.83;11.32;;;2.90;99.90;;;;;;4956779;28;20422;-78
2021/03/08 05:48:44;;;;;;;16.30;10.80;;;2.90;99.90;;;;;;4970597;28;20521;-78
2021/03/08 05:51:48;;;;;;;15.50;9.90;;;2.90;99.90;;;;;;4957634;28;20031;-77
2021/03/08 05:54:39;;;;;;;18.80;10.10;;;2.90;99.90;;;;;;4954553;28;20042;-76
2021/03/08 05:57:19;;;;;;;24.48;11.77;;;3.00;99.90;;;;;;4965845;28;20102;-77
2021/03/08 06:00:19;;;;;;;24.52;11.07;;;3.00;99.90;;;;;;4952565;28;20425;-78
2021/03/08 06:03:09;;;;;;;11.82;9.43;;;3.10;99.90;;;;;;4960109;28;20102;-76
2021/03/08 06:05:47;;;;;;;14.15;10.48;;;3.20;99.90;;;;;;4953777;28;20473;-76
2021/03/08 06:08:31;;;;;;;14.93;10.73;;;3.20;99.90;;;;;;4963636;28;20397;-76
2021/03/08 06:11:09;;;;;;;11.82;8.25;;;3.10;99.90;;;;;;4957968;28;20374;-76
2021/03/08 06:13:54;;;;;;;17.98;11.02;;;3.10;99.90;;;;;;4968690;28;20077;-78
2021/03/08 06:16:38;;;;;;;24.20;11.18;;;3.20;99.90;;;;;;4950895;28;20023;-76
2021/03/08 06:19:06;;;;;;;14.95;10.80;;;3.20;99.90;;;;;;4963323;28;20078;-77
2021/03/08 06:21:33;;;;;;;14.20;10.15;;;3.30;99.90;;;;;;4957889;28;20111;-77
2021/03/08 06:24:01;;;;;;;17.65;11.32;;;3.30;99.90;;;;;;4963629;28;20027;-76
2021/03/08 06:26:28;;;;;;;16.25;11.88;;;3.30;99.90;;;;;;4966404;28;20041;-76
2021/03/08 06:28:56;;;;;;;16.63;9.27;;;3.30;99.90;;;;;;4949534;28;20031;-78
2021/03/08 06:31:24;;;;;;;18.30;12.02;;;3.40;99.90;;;;;;4952903;28;20034;-76
2021/03/08 06:33:51;;;;;;;13.90;10.07;;;3.40;99.90;;;;;;4954893;28;20027;-76
2021/03/08 06:36:20;;;;;;;18.10;9.98;;;3.50;99.90;;;;;;4940642;28;20062;-76
2021/03/08 06:38:46;;;;;;;15.48;10.45;;;3.60;99.90;;;;;;4941062;29;20925;-76
2021/03/08 06:41:12;;;;;;;15.80;10.45;;;3.70;99.90;;;;;;4938781;28;20030;-75
2021/03/08 06:43:39;;;;;;;24.15;10.20;;;3.60;99.90;;;;;;4934611;29;20145;-77
2021/03/08 06:46:05;;;;;;;15.85;10.15;;;3.80;99.90;;;;;;4954838;28;20240;-76
2021/03/08 06:48:31;;;;;;;19.45;11.02;;;3.80;99.90;;;;;;4955868;29;20438;-78
2021/03/08 06:51:10;;;;;;;19.65;10.40;;;3.90;99.90;;;;;;4954248;28;20035;-76
2021/03/08 06:53:37;;;;;;;20.85;11.85;;;4.10;99.90;;;;;;4955997;28;20106;-77
2021/03/08 06:56:19;;;;;;;19.38;10.35;;;4.10;99.90;;;;;;4952876;28;20034;-79
2021/03/08 06:59:03;;;;;;;12.25;8.65;;;4.20;99.90;;;;;;4954588;28;20019;-75
2021/03/08 07:01:31;;;;;;;17.33;9.77;;;4.30;99.90;;;;;;4957708;28;20034;-76
2021/03/08 07:03:59;;;;;;;13.02;8.88;;;4.40;99.90;;;;;;4960403;28;20047;-75
2021/03/08 07:06:26;;;;;;;23.05;10.40;;;4.50;99.90;;;;;;4960899;28;20102;-75
2021/03/08 07:09:02;;;;;;;13.25;9.43;;;4.50;99.90;;;;;;4956665;28;20031;-76
2021/03/08 07:11:30;;;;;;;19.38;11.93;;;4.60;99.90;;;;;;4956283;29;20027;-75
2021/03/08 07:14:00;;;;;;;15.18;10.32;;;4.70;99.90;;;;;;4958704;28;20078;-76
2021/03/08 07:16:38;;;;;;;19.40;11.18;;;4.90;99.90;;;;;;4951814;28;20024;-76
2021/03/08 07:19:06;;;;;;;14.77;9.27;;;5.00;99.90;;;;;;4956297;28;20573;-77
2021/03/08 07:21:32;;;;;;;14.23;10.32;;;5.10;99.90;;;;;;4956067;28;20034;-76
2021/03/08 07:24:13;;;;;;;16.75;10.38;;;5.30;99.90;;;;;;4955079;28;20085;-78
2021/03/08 07:26:54;;;;;;;16.58;10.70;;;5.40;99.90;;;;;;4957537;29;20402;-79
2021/03/08 07:29:24;;;;;;;30.13;12.73;;;5.60;99.90;;;;;;4947666;29;20130;-77
2021/03/08 07:31:58;;;;;;;14.40;9.45;;;5.70;99.90;;;;;;4936435;29;20098;-75
2021/03/08 07:34:24;;;;;;;15.00;9.07;;;5.90;99.90;;;;;;4941707;29;20047;-76
2021/03/08 07:37:01;;;;;;;20.73;11.13;;;6.00;99.90;;;;;;4952841;28;20035;-75
2021/03/08 07:39:29;;;;;;;13.93;10.20;;;6.20;99.90;;;;;;4938479;28;20119;-76
2021/03/08 07:42:04;;;;;;;21.52;12.15;;;6.40;99.90;;;;;;4936578;29;20028;-76
2021/03/08 07:44:31;;;;;;;12.90;9.90;;;6.60;99.90;;;;;;4956905;29;20023;-76
2021/03/08 07:47:14;;;;;;;15.43;10.18;;;6.70;99.90;;;;;;4953615;28;20031;-77
2021/03/08 07:49:42;;;;;;;18.63;10.80;;;6.80;99.90;;;;;;4951991;29;20583;-77
2021/03/08 07:52:13;;;;;;;14.10;9.50;;;7.10;99.90;;;;;;4959143;28;20047;-76
2021/03/08 07:54:53;;;;;;;22.98;11.02;;;7.20;99.90;;;;;;4953266;28;20064;-77
2021/03/08 07:57:20;;;;;;;26.95;9.45;;;7.40;99.90;;;;;;4951902;29;20048;-76
2021/03/08 07:59:47;;;;;;;16.52;9.20;;;7.50;99.90;;;;;;4956474;28;20031;-77
2021/03/08 08:02:12;;;;;;;14.88;10.23;;;7.70;99.90;;;;;;4952652;28;20035;-76
2021/03/08 08:04:39;;;;;;;17.75;10.13;;;7.80;99.90;;;;;;4955026;28;20019;-77
2021/03/08 08:07:12;;;;;;;14.00;10.32;;;7.90;99.90;;;;;;4952535;28;20082;-77
2021/03/08 08:09:41;;;;;;;15.27;10.40;;;7.90;99.90;;;;;;4952948;28;20034;-77
2021/03/08 08:12:17;;;;;;;19.73;10.10;;;8.10;99.90;;;;;;4953419;28;20040;-77
2021/03/08 08:14:44;;;;;;;14.25;10.80;;;8.10;99.90;;;;;;4955202;28;20031;-76
2021/03/08 08:17:15;;;;;;;19.08;12.30;;;8.30;99.90;;;;;;4954099;28;20035;-77
2021/03/08 08:19:44;;;;;;;11.40;8.85;;;8.50;99.90;;;;;;4949979;29;20027;-77
2021/03/08 08:22:22;;;;;;;12.30;9.90;;;8.50;99.90;;;;;;4947854;28;20046;-77
2021/03/08 08:24:49;;;;;;;14.82;10.23;;;8.40;99.90;;;;;;4954010;28;20050;-79
2021/03/08 08:27:19;;;;;;;15.65;9.43;;;8.50;99.90;;;;;;4942947;29;20039;-77
2021/03/08 08:29:48;;;;;;;14.05;11.77;;;8.50;99.90;;;;;;4936320;29;20020;-76
2021/03/08 08:32:15;;;;;;;13.90;10.02;;;8.50;99.90;;;;;;4951152;28;20051;-77
2021/03/08 08:34:42;;;;;;;12.13;9.65;;;8.60;99.90;;;;;;4955627;28;20393;-77
2021/03/08 08:37:17;;;;;;;22.10;11.80;;;8.70;99.90;;;;;;4955214;28;20044;-77
2021/03/08 08:40:03;;;;;;;13.00;8.85;;;8.70;99.90;;;;;;4954612;28;20661;-77
2021/03/08 08:42:30;;;;;;;8.68;7.68;;;8.90;99.90;;;;;;4957616;28;20455;-76
2021/03/08 08:45:19;;;;;;;17.25;10.82;;;9.00;99.90;;;;;;4958782;28;20093;-77
2021/03/08 08:48:04;;;;;;;9.05;7.53;;;9.00;99.90;;;;;;4944915;29;20439;-76
2021/03/08 08:50:45;;;;;;;23.02;11.07;;;9.00;99.90;;;;;;4955116;28;20122;-77
2021/03/08 08:53:11;;;;;;;18.15;8.85;;;9.20;99.90;;;;;;4958765;28;20026;-77
2021/03/08 08:55:37;;;;;;;13.90;8.88;;;9.30;99.90;;;;;;4958144;28;20409;-77
2021/03/08 08:58:34;;;;;;;19.88;10.70;;;9.20;99.90;;;;;;4944293;28;20039;-79
2021/03/08 09:01:21;;;;;;;15.35;10.63;;;9.20;99.90;;;;;;4937005;29;20038;-78
2021/03/08 09:04:03;;;;;;;12.80;11.15;;;9.20;99.90;;;;;;4936253;29;20483;-77
2021/03/08 09:06:47;;;;;;;17.25;8.88;;;9.30;99.90;;;;;;4941034;29;20462;-77
2021/03/08 09:09:24;;;;;;;11.45;9.40;;;9.40;99.90;;;;;;4951339;29;20060;-77
2021/03/08 09:12:08;;;;;;;12.13;9.90;;;9.50;99.90;;;;;;4940390;29;20040;-77
2021/03/08 09:14:53;;;;;;;25.17;11.57;;;9.50;99.90;;;;;;4949760;28;20024;-75
2021/03/08 09:17:21;;;;;;;18.92;12.27;;;9.50;99.90;;;;;;4961531;28;20524;-75
2021/03/08 09:19:54;;;;;;;16.35;10.95;;;9.40;99.90;;;;;;4965705;28;20039;-74
2021/03/08 09:22:23;;;;;;;14.93;11.20;;;9.40;99.90;;;;;;4963232;28;20066;-75
2021/03/08 09:24:53;;;;;;;19.25;12.13;;;9.30;99.90;;;;;;4970272;28;20030;-74
2021/03/08 09:27:23;;;;;;;18.40;12.32;;;9.40;99.90;;;;;;4963914;28;20056;-74
2021/03/08 09:29:49;;;;;;;16.90;13.65;;;9.40;99.90;;;;;;4965477;28;20024;-74
2021/03/08 09:32:16;;;;;;;16.15;11.25;;;9.30;99.90;;;;;;4962602;28;20053;-74
2021/03/08 09:34:42;;;;;;;15.52;12.38;;;9.30;99.90;;;;;;4956816;28;20035;-74
2021/03/08 09:37:09;;;;;;;19.98;13.45;;;9.30;99.90;;;;;;4956700;29;20060;-74
2021/03/08 09:39:54;;;;;;;17.88;13.63;;;9.30;99.90;;;;;;4945198;29;20031;-76
2021/03/08 09:42:21;;;;;;;15.93;12.40;;;9.30;99.90;;;;;;4935968;29;20042;-74
2021/03/08 09:44:48;;;;;;;24.60;12.05;;;9.30;99.90;;;;;;4937574;29;20047;-74
2021/03/08 09:47:14;;;;;;;19.55;11.52;;;9.30;99.90;;;;;;4949573;29;20039;-74
2021/03/08 09:49:50;;;;;;;16.38;11.77;;;9.20;99.90;;;;;;4962446;28;20027;-74
2021/03/08 09:52:39;;;;;;;13.30;8.90;;;9.10;99.90;;;;;;4947553;28;20064;-74
2021/03/08 09:55:08;;;;;;;18.33;11.45;;;9.10;99.90;;;;;;4955714;29;20066;-74
2021/03/08 09:57:38;;;;;;;11.77;9.23;;;9.00;99.90;;;;;;4956656;28;20031;-74
2021/03/08 10:00:16;;;;;;;14.18;10.23;;;8.80;99.90;;;;;;4942111;29;21753;-74
2021/03/08 10:02:42;;;;;;;15.50;10.35;;;8.90;99.90;;;;;;4955499;28;20074;-74
2021/03/08 10:05:11;;;;;;;13.88;10.32;;;8.80;99.90;;;;;;4938164;29;20043;-74
2021/03/08 10:07:56;;;;;;;13.60;10.05;;;8.80;99.90;;;;;;4937143;29;20410;-74
2021/03/08 10:10:25;;;;;;;13.00;11.13;;;8.80;99.90;;;;;;4939964;29;20031;-74
2021/03/08 10:13:01;;;;;;;18.95;11.93;;;8.80;99.90;;;;;;4955844;28;20034;-74
2021/03/08 10:15:36;;;;;;;14.65;11.30;;;8.90;99.90;;;;;;4962900;28;20021;-74
2021/03/08 10:18:02;;;;;;;14.35;10.20;;;9.00;99.90;;;;;;4941189;28;20035;-74
2021/03/08 10:20:29;;;;;;;22.38;11.45;;;9.00;99.90;;;;;;4955236;28;20054;-74
2021/03/08 10:22:55;;;;;;;14.38;11.07;;;9.00;99.90;;;;;;4956976;28;20030;-74
2021/03/08 10:25:23;;;;;;;15.75;11.20;;;9.00;99.90;;;;;;4969328;28;20051;-74
2021/03/08 10:27:57;;;;;;;15.57;11.00;;;9.10;99.90;;;;;;4960500;28;20027;-74
2021/03/08 10:30:25;;;;;;;16.48;10.95;;;9.10;99.90;;;;;;4954686;29;20027;-75
2021/03/08 10:33:01;;;;;;;22.85;12.60;;;9.10;99.90;;;;;;4957844;28;20126;-74
2021/03/08 10:35:27;;;;;;;16.85;10.90;;;9.00;99.90;;;;;;4964711;28;20035;-73
2021/03/08 10:37:54;;;;;;;16.95;10.73;;;9.10;99.90;;;;;;4949100;28;20060;-74
2021/03/08 10:40:22;;;;;;;17.17;11.82;;;9.10;99.90;;;;;;4939609;29;20036;-74
2021/03/08 10:42:48;;;;;;;18.05;11.20;;;9.10;99.90;;;;;;4947910;28;20028;-74
2021/03/08 10:45:15;;;;;;;15.32;10.77;;;9.10;99.90;;;;;;4937805;29;20036;-74
2021/03/08 10:47:41;;;;;;;14.52;11.30;;;9.10;99.90;;;;;;4952427;28;20132;-74
2021/03/08 10:50:08;;;;;;;14.95;11.30;;;9.10;99.90;;;;;;4950609;29;20035;-74
2021/03/08 10:52:34;;;;;;;17.05;12.20;;;9.30;99.90;;;;;;4937841;29;20050;-75
2021/03/08 10:55:00;;;;;;;21.02;12.63;;;9.20;99.90;;;;;;4956165;28;20035;-74
2021/03/08 10:57:27;;;;;;;17.88;12.05;;;9.20;99.90;;;;;;4955724;28;20031;-74
2021/03/08 10:59:55;;;;;;;21.63;14.57;;;9.30;99.90;;;;;;4953676;28;20102;-74
2021/03/08 11:02:22;;;;;;;21.70;14.02;;;9.30;99.90;;;;;;4955995;28;20089;-74
2021/03/08 11:04:50;;;;;;;19.42;13.73;;;9.30;99.90;;;;;;4958592;28;20031;-77
2021/03/08 11:07:29;;;;;;;21.05;12.98;;;9.50;99.90;;;;;;4959666;29;20030;-74
2021/03/08 11:09:55;;;;;;;22.63;14.52;;;9.60;99.90;;;;;;4956133;29;20026;-75
2021/03/08 11:12:23;;;;;;;22.17;13.70;;;9.60;99.90;;;;;;4954326;28;20110;-75
2021/03/08 11:14:54;;;;;;;25.65;13.15;;;9.70;99.90;;;;;;4945579;28;20040;-73
2021/03/08 11:17:41;;;;;;;20.85;15.40;;;9.80;99.90;;;;;;4935861;29;20023;-74
2021/03/08 11:20:21;;;;;;;22.80;16.77;;;9.60;99.90;;;;;;4944245;29;20032;-73
2021/03/08 11:22:53;;;;;;;22.00;17.42;;;9.60;99.90;;;;;;4933524;29;20031;-73
2021/03/08 11:25:39;;;;;;;26.83;17.92;;;9.50;99.90;;;;;;4934422;29;20031;-73
2021/03/08 11:28:10;;;;;;;21.73;15.80;;;9.60;99.90;;;;;;4944382;28;20031;-74
2021/03/08 11:30:37;;;;;;;24.00;17.70;;;9.60;99.90;;;;;;4954839;28;20033;-73
2021/03/08 11:33:08;;;;;;;23.35;17.17;;;9.50;99.90;;;;;;4951353;28;20038;-73
2021/03/08 11:35:35;;;;;;;26.33;19.83;;;9.60;99.90;;;;;;4947461;28;20118;-73
2021/03/08 11:38:12;;;;;;;24.13;19.48;;;9.70;99.90;;;;;;4939543;29;20581;-73
2021/03/08 11:40:44;;;;;;;27.08;19.92;;;9.60;99.90;;;;;;4953585;29;20031;-73
2021/03/08 11:43:10;;;;;;;28.85;20.52;;;9.60;99.90;;;;;;4953150;28;20089;-73
2021/03/08 11:45:36;;;;;;;30.08;21.23;;;9.60;99.90;;;;;;4954842;28;20035;-73
2021/03/08 11:48:02;;;;;;;24.73;21.23;;;9.60;99.90;;;;;;4948548;28;20499;-73
2021/03/08 11:50:33;;;;;;;32.53;25.23;;;9.60;99.90;;;;;;4950481;28;20035;-74
2021/03/08 11:52:59;;;;;;;30.20;24.25;;;9.70;99.90;;;;;;4935459;29;20036;-74
2021/03/08 11:55:25;;;;;;;26.98;23.67;;;9.80;99.90;;;;;;4943493;29;20538;-73
2021/03/08 11:57:52;;;;;;;33.50;24.88;;;9.80;99.90;;;;;;4946953;29;20027;-73
2021/03/08 12:00:20;;;;;;;34.75;27.13;;;9.90;99.90;;;;;;4960127;29;20054;-74
2021/03/08 12:02:46;;;;;;;34.55;27.40;;;10.00;99.90;;;;;;4961211;28;20058;-75
2021/03/08 12:05:12;;;;;;;38.42;30.63;;;10.10;99.90;;;;;;4955784;28;20035;-75
2021/03/08 12:07:39;;;;;;;36.97;28.55;;;10.10;99.90;;;;;;4959429;29;20031;-74
2021/03/08 12:10:07;;;;;;;34.90;29.25;;;10.10;99.90;;;;;;4961369;28;20036;-74
2021/03/08 12:12:34;;;;;;;36.28;28.98;;;10.00;99.90;;;;;;4956882;28;20116;-74
2021/03/08 12:15:00;;;;;;;34.88;29.02;;;10.10;99.90;;;;;;4949740;28;20055;-74
2021/03/08 12:17:26;;;;;;;38.72;30.67;;;10.20;99.90;;;;;;4952127;28;20055;-75
2021/03/08 12:19:52;;;;;;;39.17;29.20;;;10.20;99.90;;;;;;4958681;28;20093;-74
2021/03/08 12:22:18;;;;;;;33.30;29.48;;;10.20;99.90;;;;;;4964665;28;20078;-74
2021/03/08 12:24:45;;;;;;;31.75;27.25;;;10.00;99.90;;;;;;4956066;28;20111;-74
2021/03/08 12:27:10;;;;;;;30.33;27.17;;;10.10;99.90;;;;;;4945687;28;20015;-75
2021/03/08 12:29:36;;;;;;;31.73;28.02;;;10.10;99.90;;;;;;4968132;28;20050;-75
2021/03/08 12:32:05;;;;;;;34.83;29.17;;;10.10;99.90;;;;;;4963037;28;20142;-74
2021/03/08 12:34:31;;;;;;;31.17;27.85;;;10.10;99.90;;;;;;4954039;29;20118;-75
2021/03/08 12:36:56;;;;;;;33.38;29.48;;;10.00;99.90;;;;;;4959015;28;20131;-75
2021/03/08 12:39:23;;;;;;;30.58;26.08;;;10.00;99.90;;;;;;4965754;28;20085;-74
2021/03/08 12:41:49;;;;;;;34.05;28.48;;;10.00;99.90;;;;;;4950485;28;20039;-74
2021/03/08 12:44:15;;;;;;;35.03;28.55;;;10.00;99.90;;;;;;4950109;28;20041;-74
2021/03/08 12:46:41;;;;;;;36.58;31.30;;;10.10;99.90;;;;;;4963220;28;20034;-74
2021/03/08 12:49:07;;;;;;;35.35;29.45;;;10.10;99.90;;;;;;4952025;28;20038;-74
2021/03/08 12:51:33;;;;;;;33.00;28.67;;;10.20;99.90;;;;;;4960315;28;20114;-74
2021/03/08 12:53:59;;;;;;;34.33;29.30;;;10.20;99.90;;;;;;4963284;28;20034;-74